Time;durP1;ratioP1;P1;durP2;ratioP2;P2;SDS_P1;SDS_P2;PMS_P1;PMS_P2;Temp;Humidity;BMP_temperature;BMP_pressure;BME280_temperature;BME280_humidity;BME280_pressure;Samples;Min_cycle;Max_cycle;Signal;HPM_P1;HPM_P2
2021/06/26 00:04:44;;;;;;;3.30;2.90;;;21.20;63.80;;;;;;20695708;28;20067;-72
2021/06/26 00:14:45;;;;;;;4.00;3.20;;;21.20;63.70;;;;;;20711179;28;20100;-71
2021/06/26 00:24:45;;;;;;;3.35;2.80;;;21.20;63.70;;;;;;20726995;28;20049;-71
2021/06/26 00:34:46;;;;;;;4.38;2.90;;;21.20;63.60;;;;;;20709425;28;20539;-72
2021/06/26 00:44:47;;;;;;;4.03;3.60;;;21.20;63.60;;;;;;20708224;28;20136;-71
2021/06/26 00:54:47;;;;;;;4.22;2.90;;;21.10;63.50;;;;;;20725289;28;20037;-70
2021/06/26 01:04:48;;;;;;;3.17;2.85;;;21.10;63.50;;;;;;20675355;28;20046;-71
2021/06/26 01:14:51;;;;;;;3.13;2.78;;;21.10;63.40;;;;;;20706646;28;20112;-72
2021/06/26 01:24:53;;;;;;;4.25;2.35;;;21.10;63.30;;;;;;20689757;28;20042;-72
2021/06/26 01:34:54;;;;;;;3.00;2.70;;;21.10;63.20;;;;;;20690191;28;20033;-70
2021/06/26 01:44:54;;;;;;;3.30;2.83;;;21.10;63.20;;;;;;20688954;28;20042;-71
2021/06/26 01:54:55;;;;;;;3.85;3.22;;;21.10;63.10;;;;;;20696482;28;20507;-71
2021/06/26 02:04:55;;;;;;;3.95;3.50;;;21.10;63.00;;;;;;20704217;28;20469;-72
2021/06/26 02:14:56;;;;;;;3.60;3.08;;;21.00;62.90;;;;;;20703590;28;20483;-71
2021/06/26 02:24:57;;;;;;;2.95;2.65;;;21.00;62.80;;;;;;20702710;28;20132;-72
2021/06/26 02:34:57;;;;;;;3.75;3.28;;;21.00;62.70;;;;;;20717885;28;20038;-71
2021/06/26 02:44:58;;;;;;;3.25;2.95;;;21.00;62.70;;;;;;20701026;28;20117;-71
2021/06/26 02:54:59;;;;;;;2.63;2.42;;;21.00;62.50;;;;;;20716057;28;20406;-70
2021/06/26 03:04:59;;;;;;;4.67;3.23;;;20.90;62.30;;;;;;20714968;28;20400;-70
2021/06/26 03:15:00;;;;;;;3.90;3.15;;;20.90;62.20;;;;;;20698671;28;20292;-70
2021/06/26 03:25:00;;;;;;;4.10;3.20;;;20.90;62.10;;;;;;20698223;28;20049;-71
2021/06/26 03:35:01;;;;;;;3.67;3.00;;;20.90;62.10;;;;;;20713310;28;20041;-70
2021/06/26 03:45:02;;;;;;;4.45;3.47;;;20.90;62.00;;;;;;20712450;28;20037;-71
2021/06/26 03:55:03;;;;;;;3.17;2.88;;;20.90;61.80;;;;;;20695790;28;20037;-71
2021/06/26 04:05:05;;;;;;;3.80;2.72;;;20.80;61.70;;;;;;20695329;28;20033;-72
2021/06/26 04:15:06;;;;;;;3.50;3.00;;;20.80;61.80;;;;;;20710925;28;20560;-70
2021/06/26 04:25:07;;;;;;;3.60;3.00;;;20.80;61.70;;;;;;20693859;28;20132;-71
2021/06/26 04:35:13;;;;;;;4.22;3.17;;;20.80;61.70;;;;;;20694160;28;20168;-71
2021/06/26 04:45:14;;;;;;;3.97;2.92;;;20.80;61.80;;;;;;20709276;28;20048;-70
2021/06/26 04:55:15;;;;;;;3.60;2.80;;;20.80;61.90;;;;;;20691251;28;20120;-70
2021/06/26 05:05:15;;;;;;;5.07;2.90;;;20.80;61.90;;;;;;20707605;28;20046;-71
2021/06/26 05:15:16;;;;;;;3.38;2.78;;;20.80;62.00;;;;;;20707077;28;20631;-71
2021/06/26 05:25:16;;;;;;;3.40;3.00;;;20.80;62.00;;;;;;20690740;28;20056;-70
2021/06/26 05:35:17;;;;;;;4.93;2.65;;;20.80;62.10;;;;;;20706047;28;20033;-70
2021/06/26 05:45:18;;;;;;;3.53;2.85;;;20.90;62.20;;;;;;20689560;28;20128;-71
2021/06/26 05:55:18;;;;;;;3.70;2.93;;;20.90;62.30;;;;;;20689418;28;20034;-69
2021/06/26 06:05:19;;;;;;;2.70;2.47;;;20.90;62.30;;;;;;20681511;28;20380;-71
2021/06/26 06:15:20;;;;;;;3.03;2.73;;;20.90;62.40;;;;;;20707542;28;20068;-72
2021/06/26 06:25:20;;;;;;;3.28;2.60;;;20.90;62.30;;;;;;20659343;28;20799;-73
2021/06/26 06:35:21;;;;;;;4.72;3.17;;;21.00;62.30;;;;;;20720733;28;20038;-74
2021/06/26 06:45:22;;;;;;;3.15;2.80;;;21.00;62.30;;;;;;20735986;28;20125;-74
2021/06/26 06:55:22;;;;;;;2.80;2.47;;;21.10;62.30;;;;;;20718816;28;20032;-76
2021/06/26 07:05:23;;;;;;;3.13;2.83;;;21.20;62.30;;;;;;20716778;28;20042;-74
2021/06/26 07:15:23;;;;;;;2.93;2.33;;;21.10;62.20;;;;;;20715718;28;20030;-73
2021/06/26 07:25:24;;;;;;;3.15;2.45;;;21.10;62.20;;;;;;20731327;28;20471;-76
2021/06/26 07:35:26;;;;;;;2.30;1.92;;;21.20;62.20;;;;;;20717577;28;20049;-80
2021/06/26 07:45:26;;;;;;;2.97;2.50;;;21.20;62.10;;;;;;20686751;28;20569;-75
2021/06/26 07:55:29;;;;;;;2.90;2.38;;;21.20;62.10;;;;;;20724834;28;20579;-73
2021/06/26 08:05:30;;;;;;;3.83;2.38;;;21.20;62.00;;;;;;20723511;28;20036;-74
2021/06/26 08:15:31;;;;;;;2.42;2.00;;;21.30;62.00;;;;;;20738354;28;20041;-75
2021/06/26 08:25:34;;;;;;;3.05;2.35;;;21.30;62.00;;;;;;20743668;28;20037;-72
2021/06/26 08:35:35;;;;;;;2.83;2.30;;;21.30;62.00;;;;;;20754864;28;20053;-72
2021/06/26 08:45:37;;;;;;;2.10;1.87;;;21.30;61.90;;;;;;20746025;28;20499;-71
2021/06/26 08:55:38;;;;;;;3.13;2.28;;;21.40;61.90;;;;;;20703236;28;20291;-76
2021/06/26 09:05:39;;;;;;;2.07;1.87;;;21.40;61.80;;;;;;20687631;28;20484;-74
2021/06/26 09:15:40;;;;;;;2.75;2.20;;;21.40;61.80;;;;;;20704006;28;20285;-75
2021/06/26 09:25:40;;;;;;;3.38;2.53;;;21.40;61.70;;;;;;21109858;23;20056;-79
2021/06/26 09:35:46;;;;;;;2.97;2.28;;;21.40;61.70;;;;;;20707517;28;20437;-79
2021/06/26 09:45:47;;;;;;;2.85;2.00;;;21.40;61.60;;;;;;20694068;28;20045;-81
2021/06/26 09:55:53;;;;;;;2.25;2.00;;;21.30;61.60;;;;;;20691510;28;20269;-79
2021/06/26 10:05:54;;;;;;;2.85;2.55;;;21.30;61.60;;;;;;20681557;28;20034;-79
2021/06/26 10:15:54;;;;;;;2.58;2.20;;;21.30;61.60;;;;;;20708934;28;20053;-77
2021/06/26 10:25:58;;;;;;;2.53;1.83;;;21.40;61.70;;;;;;20682699;28;20050;-77
2021/06/26 10:35:59;;;;;;;2.55;2.22;;;21.30;61.60;;;;;;20698288;28;20503;-77
2021/06/26 10:46:12;;;;;;;2.30;2.10;;;21.30;61.70;;;;;;20716707;28;20319;-78
2021/06/26 10:56:13;;;;;;;3.47;2.92;;;21.40;61.80;;;;;;20714661;28;20037;-79
2021/06/26 11:06:15;;;;;;;2.20;1.95;;;21.40;61.50;;;;;;20702028;28;20113;-78
2021/06/26 11:16:15;;;;;;;2.40;2.10;;;21.40;61.40;;;;;;20715041;28;20048;-78
2021/06/26 11:26:16;;;;;;;2.60;1.85;;;21.40;61.00;;;;;;20680224;28;20045;-78
2021/06/26 11:36:19;;;;;;;3.30;2.50;;;21.40;60.80;;;;;;20712218;28;20087;-77
2021/06/26 11:46:19;;;;;;;1.77;1.67;;;21.40;60.60;;;;;;20711140;28;20066;-78
2021/06/26 11:56:20;;;;;;;2.33;1.98;;;21.40;60.70;;;;;;20710707;28;20118;-75
2021/06/26 12:06:21;;;;;;;2.67;2.10;;;21.40;60.80;;;;;;20705327;28;20083;-75
2021/06/26 12:16:23;;;;;;;3.77;2.17;;;21.50;60.60;;;;;;20786393;28;20040;-75
2021/06/26 12:26:25;;;;;;;2.88;2.00;;;21.40;60.60;;;;;;20786484;28;20357;-76
2021/06/26 12:36:26;;;;;;;2.72;1.90;;;21.40;60.60;;;;;;20785473;28;20040;-76
2021/06/26 12:46:27;;;;;;;2.25;1.95;;;21.40;60.80;;;;;;20760419;28;20042;-75
2021/06/26 12:56:29;;;;;;;2.75;2.17;;;21.50;61.00;;;;;;20719514;28;20471;-75
2021/06/26 13:06:29;;;;;;;1.77;1.67;;;21.50;61.10;;;;;;20719806;28;20084;-76
2021/06/26 13:16:30;;;;;;;2.22;2.00;;;21.50;61.20;;;;;;20701076;28;20483;-76
2021/06/26 13:26:31;;;;;;;2.72;2.10;;;21.50;61.30;;;;;;20701838;28;20216;-75
2021/06/26 13:36:31;;;;;;;2.80;2.28;;;21.50;61.30;;;;;;20717884;28;20046;-75
2021/06/26 13:46:32;;;;;;;2.55;1.90;;;21.50;61.30;;;;;;20703714;28;20487;-74
2021/06/26 13:56:33;;;;;;;3.33;1.65;;;21.50;61.00;;;;;;20795982;28;20041;-73
2021/06/26 14:06:33;;;;;;;3.57;1.97;;;21.80;60.80;;;;;;20776360;28;20038;-74
2021/06/26 14:16:34;;;;;;;2.00;1.50;;;21.80;60.40;;;;;;20736665;28;20626;-76
2021/06/26 14:26:35;;;;;;;1.88;1.60;;;21.90;60.60;;;;;;20720452;28;20030;-77
2021/06/26 14:36:35;;;;;;;2.00;1.40;;;21.90;60.60;;;;;;20737294;28;20038;-76
2021/06/26 14:46:36;;;;;;;1.80;1.60;;;22.00;60.60;;;;;;20751681;28;20033;-77
2021/06/26 14:56:36;;;;;;;3.40;1.80;;;21.90;60.40;;;;;;20734334;28;20034;-76
2021/06/26 15:06:37;;;;;;;2.13;1.48;;;21.90;60.50;;;;;;20733136;28;20046;-75
2021/06/26 15:16:38;;;;;;;5.75;2.10;;;21.90;60.30;;;;;;20732576;28;20045;-76
2021/06/26 15:26:38;;;;;;;2.67;1.80;;;22.00;60.10;;;;;;20716276;28;20128;-76
2021/06/26 15:36:41;;;;;;;2.72;2.00;;;22.10;59.60;;;;;;20730847;28;20057;-77
2021/06/26 15:46:41;;;;;;;2.67;1.92;;;22.30;59.30;;;;;;20730444;28;20041;-77
2021/06/26 15:56:42;;;;;;;3.33;2.22;;;22.40;59.00;;;;;;20713822;28;20038;-77
2021/06/26 16:06:43;;;;;;;2.92;1.90;;;22.50;58.40;;;;;;20726177;28;20026;-76
2021/06/26 16:16:43;;;;;;;3.00;2.35;;;22.60;58.30;;;;;;20702557;28;20140;-75
2021/06/26 16:26:44;;;;;;;2.78;2.35;;;22.70;58.20;;;;;;20711305;28;20113;-75
2021/06/26 16:36:47;;;;;;;3.55;2.55;;;22.70;58.20;;;;;;20694502;28;20052;-76
2021/06/26 16:46:48;;;;;;;2.42;1.80;;;22.80;58.20;;;;;;20693791;28;20026;-79
2021/06/26 16:56:48;;;;;;;2.15;1.95;;;22.90;58.30;;;;;;20693292;28;20575;-78
2021/06/26 17:06:49;;;;;;;3.07;1.60;;;22.90;58.40;;;;;;20693676;28;20057;-76
2021/06/26 17:16:49;;;;;;;2.25;1.70;;;23.00;58.50;;;;;;20692231;28;20419;-80
2021/06/26 17:26:50;;;;;;;1.83;1.40;;;23.00;58.50;;;;;;20709283;28;20125;-78
2021/06/26 17:36:51;;;;;;;2.53;1.45;;;23.00;58.60;;;;;;20691217;28;20120;-78
2021/06/26 17:46:51;;;;;;;2.80;1.73;;;23.10;58.70;;;;;;20690357;28;20128;-78
2021/06/26 17:56:52;;;;;;;1.75;1.52;;;23.10;58.80;;;;;;20706246;28;20300;-79
2021/06/26 18:06:53;;;;;;;1.43;1.33;;;23.10;58.70;;;;;;20685456;28;20030;-79
2021/06/26 18:16:53;;;;;;;2.28;1.50;;;23.10;58.80;;;;;;20672791;28;20354;-80
2021/06/26 18:26:54;;;;;;;2.10;1.60;;;23.00;58.90;;;;;;20609132;28;20038;-75
2021/06/26 18:36:54;;;;;;;1.50;1.38;;;23.00;59.10;;;;;;20702143;28;20438;-76
2021/06/26 18:46:55;;;;;;;1.50;1.40;;;22.90;59.30;;;;;;20751504;28;20045;-77
2021/06/26 18:56:56;;;;;;;1.75;1.60;;;22.80;59.60;;;;;;20734371;28;20121;-76
2021/06/26 19:06:56;;;;;;;1.83;1.53;;;22.70;59.80;;;;;;20749320;28;20029;-76
2021/06/26 19:16:57;;;;;;;2.08;1.73;;;22.70;60.10;;;;;;20699989;28;20048;-77
2021/06/26 19:26:59;;;;;;;1.92;1.67;;;22.60;60.20;;;;;;20699745;28;20042;-77
2021/06/26 19:37:00;;;;;;;3.17;1.65;;;22.60;60.40;;;;;;20698616;28;20113;-76
2021/06/26 19:47:00;;;;;;;2.10;1.88;;;22.50;60.50;;;;;;20713520;28;20053;-76
2021/06/26 19:57:01;;;;;;;2.50;1.60;;;22.50;60.70;;;;;;20679098;28;20068;-76
2021/06/26 20:07:02;;;;;;;2.00;1.67;;;22.50;60.80;;;;;;20726331;28;20292;-75
2021/06/26 20:17:02;;;;;;;3.33;1.77;;;22.40;60.90;;;;;;20710898;28;20104;-75
2021/06/26 20:27:04;;;;;;;2.30;2.00;;;22.40;61.00;;;;;;20710358;28;20276;-74
2021/06/26 20:37:04;;;;;;;2.03;1.83;;;22.40;61.20;;;;;;20694208;28;20038;-75
2021/06/26 20:47:05;;;;;;;2.33;1.90;;;22.40;61.30;;;;;;20710212;28;20555;-74
2021/06/26 20:57:06;;;;;;;4.55;2.50;;;22.40;61.50;;;;;;20692144;28;20053;-74
2021/06/26 21:07:06;;;;;;;3.97;2.33;;;22.40;61.60;;;;;;20691680;28;20088;-75
2021/06/26 21:17:07;;;;;;;2.95;2.22;;;22.30;61.70;;;;;;20692078;28;20132;-77
2021/06/26 21:27:08;;;;;;;3.15;2.50;;;22.30;61.80;;;;;;20674936;28;20080;-75
2021/06/26 21:37:09;;;;;;;3.25;2.40;;;22.30;61.80;;;;;;20690257;28;20049;-77
2021/06/26 21:47:09;;;;;;;2.70;2.00;;;22.30;61.80;;;;;;20706803;28;20041;-77
2021/06/26 21:57:10;;;;;;;2.97;2.47;;;22.20;61.80;;;;;;20705773;28;20304;-77
2021/06/26 22:07:12;;;;;;;3.70;2.50;;;22.20;61.80;;;;;;20683955;28;20500;-78
2021/06/26 22:17:19;;;;;;;2.88;2.05;;;22.20;61.90;;;;;;20706262;28;20052;-75
2021/06/26 22:27:19;;;;;;;2.80;2.10;;;22.10;61.90;;;;;;20707594;28;20038;-74
2021/06/26 22:37:20;;;;;;;3.22;2.13;;;22.20;62.00;;;;;;20736559;28;20477;-76
2021/06/26 22:47:20;;;;;;;2.67;2.30;;;22.10;62.00;;;;;;20719310;28;20069;-75
2021/06/26 22:57:21;;;;;;;2.40;2.20;;;22.10;62.10;;;;;;20702299;28;20054;-76
2021/06/26 23:07:21;;;;;;;2.75;2.20;;;22.10;62.20;;;;;;20717916;28;20056;-75
2021/06/26 23:28:44;;;;;;;3.05;2.00;;;22.10;62.30;;;;;;20762339;28;20041;-76
2021/06/26 23:38:45;;;;;;;2.15;1.60;;;22.10;62.30;;;;;;20716094;28;20542;-76
2021/06/26 23:48:45;;;;;;;2.58;1.88;;;22.00;62.30;;;;;;20683279;28;20580;-75
2021/06/26 23:58:51;;;;;;;3.67;2.38;;;22.00;62.40;;;;;;20714497;28;20512;-77
